sensor_id;sensor_type;location;lat;lon;timestamp;temperature;humidity
38902;DHT22;24661;53.566;9.910;2022-07-22T00:01:03;18.90;99.90
38902;DHT22;24661;53.566;9.910;2022-07-22T00:03:29;19.00;99.90
38902;DHT22;24661;53.566;9.910;2022-07-22T00:05:55;18.90;99.90
38902;DHT22;24661;53.566;9.910;2022-07-22T00:08:20;18.80;99.90
38902;DHT22;24661;53.566;9.910;2022-07-22T00:10:46;18.70;99.90
38902;DHT22;24661;53.566;9.910;2022-07-22T00:13:12;18.60;99.90
38902;DHT22;24661;53.566;9.910;2022-07-22T00:15:37;18.50;99.90
38902;DHT22;24661;53.566;9.910;2022-07-22T00:18:03;18.30;99.90
38902;DHT22;24661;53.566;9.910;2022-07-22T00:20:29;18.30;99.90
38902;DHT22;24661;53.566;9.910;2022-07-22T00:22:55;18.20;99.90
38902;DHT22;24661;53.566;9.910;2022-07-22T00:25:20;18.20;99.90
38902;DHT22;24661;53.566;9.910;2022-07-22T00:27:46;18.00;99.90
38902;DHT22;24661;53.566;9.910;2022-07-22T00:30:12;18.00;99.90
38902;DHT22;24661;53.566;9.910;2022-07-22T00:32:37;17.90;99.90
38902;DHT22;24661;53.566;9.910;2022-07-22T00:35:03;17.90;99.90
38902;DHT22;24661;53.566;9.910;2022-07-22T00:37:29;17.80;99.90
38902;DHT22;24661;53.566;9.910;2022-07-22T00:39:55;17.60;99.90
38902;DHT22;24661;53.566;9.910;2022-07-22T00:42:20;17.70;99.90
38902;DHT22;24661;53.566;9.910;2022-07-22T00:44:46;17.60;99.90
38902;DHT22;24661;53.566;9.910;2022-07-22T00:47:12;17.50;99.90
38902;DHT22;24661;53.566;9.910;2022-07-22T00:49:37;17.50;99.90
38902;DHT22;24661;53.566;9.910;2022-07-22T00:52:03;17.40;99.90
38902;DHT22;24661;53.566;9.910;2022-07-22T00:54:31;17.30;99.90
38902;DHT22;24661;53.566;9.910;2022-07-22T00:56:57;17.20;99.90
38902;DHT22;24661;53.566;9.910;2022-07-22T00:59:22;17.20;99.90
38902;DHT22;24661;53.566;9.910;2022-07-22T01:01:48;17.10;99.90
38902;DHT22;24661;53.566;9.910;2022-07-22T01:04:14;17.00;99.90
38902;DHT22;24661;53.566;9.910;2022-07-22T01:06:39;17.00;99.90
38902;DHT22;24661;53.566;9.910;2022-07-22T01:09:10;16.90;99.90
38902;DHT22;24661;53.566;9.910;2022-07-22T01:11:36;16.90;99.90
38902;DHT22;24661;53.566;9.910;2022-07-22T01:14:01;16.80;99.90
38902;DHT22;24661;53.566;9.910;2022-07-22T01:16:27;16.60;99.90
38902;DHT22;24661;53.566;9.910;2022-07-22T01:18:53;16.60;99.90
38902;DHT22;24661;53.566;9.910;2022-07-22T01:21:18;16.60;99.90
38902;DHT22;24661;53.566;9.910;2022-07-22T01:23:44;16.50;99.90
38902;DHT22;24661;53.566;9.910;2022-07-22T01:26:10;16.50;99.90
38902;DHT22;24661;53.566;9.910;2022-07-22T01:28:36;16.50;99.90
38902;DHT22;24661;53.566;9.910;2022-07-22T01:31:02;16.40;99.90
38902;DHT22;24661;53.566;9.910;2022-07-22T01:33:28;16.40;99.90
38902;DHT22;24661;53.566;9.910;2022-07-22T01:35:53;16.30;99.90
38902;DHT22;24661;53.566;9.910;2022-07-22T01:38:19;16.30;99.90
38902;DHT22;24661;53.566;9.910;2022-07-22T01:40:45;16.20;99.90
38902;DHT22;24661;53.566;9.910;2022-07-22T01:43:11;16.20;99.90
38902;DHT22;24661;53.566;9.910;2022-07-22T01:45:37;16.20;99.90
38902;DHT22;24661;53.566;9.910;2022-07-22T01:48:03;16.10;99.90
38902;DHT22;24661;53.566;9.910;2022-07-22T01:50:29;16.10;99.90
38902;DHT22;24661;53.566;9.910;2022-07-22T01:52:54;16.10;99.90
38902;DHT22;24661;53.566;9.910;2022-07-22T01:55:20;16.10;99.90
38902;DHT22;24661;53.566;9.910;2022-07-22T01:57:46;16.10;99.90
38902;DHT22;24661;53.566;9.910;2022-07-22T02:00:12;16.10;99.90
38902;DHT22;24661;53.566;9.910;2022-07-22T02:02:38;16.00;99.90
38902;DHT22;24661;53.566;9.910;2022-07-22T02:05:05;16.00;99.90
38902;DHT22;24661;53.566;9.910;2022-07-22T02:07:31;16.10;99.90
38902;DHT22;24661;53.566;9.910;2022-07-22T02:09:56;16.10;99.90
38902;DHT22;24661;53.566;9.910;2022-07-22T02:12:22;16.10;99.90
38902;DHT22;24661;53.566;9.910;2022-07-22T02:14:48;15.90;99.90
38902;DHT22;24661;53.566;9.910;2022-07-22T02:17:14;16.00;99.90
38902;DHT22;24661;53.566;9.910;2022-07-22T02:19:40;16.00;99.90
38902;DHT22;24661;53.566;9.910;2022-07-22T02:22:06;16.00;99.90
38902;DHT22;24661;53.566;9.910;2022-07-22T02:24:32;15.90;99.90
38902;DHT22;24661;53.566;9.910;2022-07-22T02:26:58;16.00;99.90
38902;DHT22;24661;53.566;9.910;2022-07-22T02:29:23;16.00;99.90
38902;DHT22;24661;53.566;9.910;2022-07-22T02:31:49;15.90;99.90
38902;DHT22;24661;53.566;9.910;2022-07-22T02:34:15;16.00;99.90
38902;DHT22;24661;53.566;9.910;2022-07-22T02:36:40;15.90;99.90
38902;DHT22;24661;53.566;9.910;2022-07-22T02:39:06;15.90;99.90
38902;DHT22;24661;53.566;9.910;2022-07-22T02:41:32;16.00;99.90
38902;DHT22;24661;53.566;9.910;2022-07-22T02:43:57;15.90;99.90
38902;DHT22;24661;53.566;9.910;2022-07-22T02:46:24;15.90;99.90
38902;DHT22;24661;53.566;9.910;2022-07-22T02:48:50;15.90;99.90
38902;DHT22;24661;53.566;9.910;2022-07-22T02:51:16;15.90;99.90
38902;DHT22;24661;53.566;9.910;2022-07-22T02:53:41;15.90;99.90
38902;DHT22;24661;53.566;9.910;2022-07-22T02:56:07;15.90;99.90
38902;DHT22;24661;53.566;9.910;2022-07-22T02:58:33;15.80;99.90
38902;DHT22;24661;53.566;9.910;2022-07-22T03:00:59;15.90;99.90
38902;DHT22;24661;53.566;9.910;2022-07-22T03:03:24;16.00;99.90
38902;DHT22;24661;53.566;9.910;2022-07-22T03:05:50;16.00;99.90
38902;DHT22;24661;53.566;9.910;2022-07-22T03:08:16;15.90;99.90
38902;DHT22;24661;53.566;9.910;2022-07-22T03:10:42;16.00;99.90
38902;DHT22;24661;53.566;9.910;2022-07-22T03:13:07;16.00;99.90
38902;DHT22;24661;53.566;9.910;2022-07-22T03:15:33;16.00;99.90
38902;DHT22;24661;53.566;9.910;2022-07-22T03:17:59;16.00;99.90
38902;DHT22;24661;53.566;9.910;2022-07-22T03:20:25;15.90;99.90
38902;DHT22;24661;53.566;9.910;2022-07-22T03:22:51;15.90;99.90
38902;DHT22;24661;53.566;9.910;2022-07-22T03:25:16;15.90;99.90
38902;DHT22;24661;53.566;9.910;2022-07-22T03:27:42;15.90;99.90
38902;DHT22;24661;53.566;9.910;2022-07-22T03:30:08;15.90;99.90
38902;DHT22;24661;53.566;9.910;2022-07-22T03:32:34;15.90;99.90
38902;DHT22;24661;53.566;9.910;2022-07-22T03:34:59;15.90;99.90
38902;DHT22;24661;53.566;9.910;2022-07-22T03:37:25;16.00;99.90
38902;DHT22;24661;53.566;9.910;2022-07-22T03:39:50;15.90;99.90
38902;DHT22;24661;53.566;9.910;2022-07-22T03:42:16;16.00;99.90
38902;DHT22;24661;53.566;9.910;2022-07-22T03:44:41;15.90;99.90
38902;DHT22;24661;53.566;9.910;2022-07-22T03:47:07;15.90;99.90
38902;DHT22;24661;53.566;9.910;2022-07-22T03:49:32;16.00;99.90
38902;DHT22;24661;53.566;9.910;2022-07-22T03:51:58;16.00;99.90
38902;DHT22;24661;53.566;9.910;2022-07-22T03:54:24;16.00;99.90
38902;DHT22;24661;53.566;9.910;2022-07-22T03:56:50;16.00;99.90
38902;DHT22;24661;53.566;9.910;2022-07-22T03:59:16;15.90;99.90
38902;DHT22;24661;53.566;9.910;2022-07-22T04:01:42;15.90;99.90
38902;DHT22;24661;53.566;9.910;2022-07-22T04:04:08;15.90;99.90
38902;DHT22;24661;53.566;9.910;2022-07-22T04:06:33;15.90;99.90
38902;DHT22;24661;53.566;9.910;2022-07-22T04:08:59;15.90;99.90
38902;DHT22;24661;53.566;9.910;2022-07-22T04:11:25;15.90;99.90
38902;DHT22;24661;53.566;9.910;2022-07-22T04:13:51;15.80;99.90
38902;DHT22;24661;53.566;9.910;2022-07-22T04:16:18;15.80;99.90
38902;DHT22;24661;53.566;9.910;2022-07-22T04:18:43;15.80;99.90
38902;DHT22;24661;53.566;9.910;2022-07-22T04:21:09;15.90;99.90
38902;DHT22;24661;53.566;9.910;2022-07-22T04:23:35;15.90;99.90
38902;DHT22;24661;53.566;9.910;2022-07-22T04:26:01;15.80;99.90
38902;DHT22;24661;53.566;9.910;2022-07-22T04:28:26;15.80;99.90
38902;DHT22;24661;53.566;9.910;2022-07-22T04:30:52;15.80;99.90
38902;DHT22;24661;53.566;9.910;2022-07-22T04:33:17;15.70;99.90
38902;DHT22;24661;53.566;9.910;2022-07-22T04:35:43;15.70;99.90
38902;DHT22;24661;53.566;9.910;2022-07-22T04:38:09;15.60;99.90
38902;DHT22;24661;53.566;9.910;2022-07-22T04:40:34;15.70;99.90
38902;DHT22;24661;53.566;9.910;2022-07-22T04:43:00;15.70;99.90
38902;DHT22;24661;53.566;9.910;2022-07-22T04:45:26;15.70;99.90
38902;DHT22;24661;53.566;9.910;2022-07-22T04:47:51;15.70;99.90
38902;DHT22;24661;53.566;9.910;2022-07-22T04:50:17;15.70;99.90
38902;DHT22;24661;53.566;9.910;2022-07-22T04:52:43;15.70;99.90
38902;DHT22;24661;53.566;9.910;2022-07-22T04:55:08;15.80;99.90
38902;DHT22;24661;53.566;9.910;2022-07-22T04:57:34;15.90;99.90
38902;DHT22;24661;53.566;9.910;2022-07-22T04:59:59;15.90;99.90
38902;DHT22;24661;53.566;9.910;2022-07-22T05:02:25;16.10;99.90
38902;DHT22;24661;53.566;9.910;2022-07-22T05:04:52;16.00;99.90
38902;DHT22;24661;53.566;9.910;2022-07-22T05:07:17;16.00;99.90
38902;DHT22;24661;53.566;9.910;2022-07-22T05:09:43;16.10;99.90
38902;DHT22;24661;53.566;9.910;2022-07-22T05:12:08;16.00;99.90
38902;DHT22;24661;53.566;9.910;2022-07-22T05:14:34;16.00;99.90
38902;DHT22;24661;53.566;9.910;2022-07-22T05:17:00;16.00;99.90
38902;DHT22;24661;53.566;9.910;2022-07-22T05:19:25;16.00;99.90
38902;DHT22;24661;53.566;9.910;2022-07-22T05:21:51;16.00;99.90
38902;DHT22;24661;53.566;9.910;2022-07-22T05:24:16;16.00;99.90
38902;DHT22;24661;53.566;9.910;2022-07-22T05:26:42;16.00;99.90
38902;DHT22;24661;53.566;9.910;2022-07-22T05:29:07;15.90;99.90
38902;DHT22;24661;53.566;9.910;2022-07-22T05:31:33;15.90;99.90
38902;DHT22;24661;53.566;9.910;2022-07-22T05:33:59;15.90;99.90
38902;DHT22;24661;53.566;9.910;2022-07-22T05:36:24;15.90;99.90
38902;DHT22;24661;53.566;9.910;2022-07-22T05:38:50;16.00;99.90
38902;DHT22;24661;53.566;9.910;2022-07-22T05:41:16;16.00;99.90
38902;DHT22;24661;53.566;9.910;2022-07-22T05:43:42;16.00;99.90
38902;DHT22;24661;53.566;9.910;2022-07-22T05:46:07;16.20;99.90
38902;DHT22;24661;53.566;9.910;2022-07-22T05:48:33;16.20;99.90
38902;DHT22;24661;53.566;9.910;2022-07-22T05:50:59;16.20;99.90
38902;DHT22;24661;53.566;9.910;2022-07-22T05:53:25;16.20;99.90
38902;DHT22;24661;53.566;9.910;2022-07-22T05:55:51;16.20;99.90
38902;DHT22;24661;53.566;9.910;2022-07-22T05:58:16;16.30;99.90
38902;DHT22;24661;53.566;9.910;2022-07-22T06:00:42;16.30;99.90
38902;DHT22;24661;53.566;9.910;2022-07-22T06:03:08;16.20;99.90
38902;DHT22;24661;53.566;9.910;2022-07-22T06:05:33;16.20;99.90
38902;DHT22;24661;53.566;9.910;2022-07-22T06:08:01;16.20;99.90
38902;DHT22;24661;53.566;9.910;2022-07-22T06:10:26;16.30;99.90
38902;DHT22;24661;53.566;9.910;2022-07-22T06:12:52;16.40;99.90
38902;DHT22;24661;53.566;9.910;2022-07-22T06:15:18;17.60;99.90
38902;DHT22;24661;53.566;9.910;2022-07-22T06:17:43;16.40;99.90
38902;DHT22;24661;53.566;9.910;2022-07-22T06:20:09;16.30;99.90
38902;DHT22;24661;53.566;9.910;2022-07-22T06:22:35;16.30;99.90
38902;DHT22;24661;53.566;9.910;2022-07-22T06:25:00;16.50;99.90
38902;DHT22;24661;53.566;9.910;2022-07-22T06:27:26;16.50;99.90
38902;DHT22;24661;53.566;9.910;2022-07-22T06:29:51;16.30;99.90
38902;DHT22;24661;53.566;9.910;2022-07-22T06:32:17;16.70;99.90
38902;DHT22;24661;53.566;9.910;2022-07-22T06:34:43;16.80;99.90
38902;DHT22;24661;53.566;9.910;2022-07-22T06:37:08;16.90;99.90
38902;DHT22;24661;53.566;9.910;2022-07-22T06:39:34;17.10;99.90
38902;DHT22;24661;53.566;9.910;2022-07-22T06:41:59;17.10;99.90
38902;DHT22;24661;53.566;9.910;2022-07-22T06:44:25;17.20;99.90
38902;DHT22;24661;53.566;9.910;2022-07-22T06:46:50;17.20;99.90
38902;DHT22;24661;53.566;9.910;2022-07-22T06:49:16;17.30;99.90
38902;DHT22;24661;53.566;9.910;2022-07-22T06:51:42;17.30;99.90
38902;DHT22;24661;53.566;9.910;2022-07-22T06:54:07;17.40;99.90
38902;DHT22;24661;53.566;9.910;2022-07-22T06:56:33;17.40;99.90
38902;DHT22;24661;53.566;9.910;2022-07-22T06:58:58;17.50;99.90
38902;DHT22;24661;53.566;9.910;2022-07-22T07:01:24;17.40;99.90
38902;DHT22;24661;53.566;9.910;2022-07-22T07:03:49;17.40;99.90
38902;DHT22;24661;53.566;9.910;2022-07-22T07:06:15;17.50;99.90
38902;DHT22;24661;53.566;9.910;2022-07-22T07:08:41;17.50;99.90
38902;DHT22;24661;53.566;9.910;2022-07-22T07:11:06;17.50;99.90
38902;DHT22;24661;53.566;9.910;2022-07-22T07:13:32;17.60;99.90
38902;DHT22;24661;53.566;9.910;2022-07-22T07:15:58;17.70;99.90
38902;DHT22;24661;53.566;9.910;2022-07-22T07:18:24;17.70;99.90
38902;DHT22;24661;53.566;9.910;2022-07-22T07:20:49;17.60;99.90
38902;DHT22;24661;53.566;9.910;2022-07-22T07:23:15;17.60;99.90
38902;DHT22;24661;53.566;9.910;2022-07-22T07:25:41;17.60;99.90
38902;DHT22;24661;53.566;9.910;2022-07-22T07:28:06;17.60;99.90
38902;DHT22;24661;53.566;9.910;2022-07-22T07:30:32;17.60;99.90
38902;DHT22;24661;53.566;9.910;2022-07-22T07:32:58;17.60;99.90
38902;DHT22;24661;53.566;9.910;2022-07-22T07:35:26;17.60;99.90
38902;DHT22;24661;53.566;9.910;2022-07-22T07:37:52;17.60;99.90
38902;DHT22;24661;53.566;9.910;2022-07-22T07:40:18;17.70;99.90
38902;DHT22;24661;53.566;9.910;2022-07-22T07:42:43;17.80;99.90
38902;DHT22;24661;53.566;9.910;2022-07-22T07:45:09;18.60;99.90
38902;DHT22;24661;53.566;9.910;2022-07-22T07:47:34;18.00;99.90
38902;DHT22;24661;53.566;9.910;2022-07-22T07:50:00;18.10;99.90
38902;DHT22;24661;53.566;9.910;2022-07-22T07:52:27;18.30;99.90
38902;DHT22;24661;53.566;9.910;2022-07-22T07:54:53;18.40;99.90
38902;DHT22;24661;53.566;9.910;2022-07-22T07:57:21;18.40;99.90
38902;DHT22;24661;53.566;9.910;2022-07-22T07:59:47;18.30;99.90
38902;DHT22;24661;53.566;9.910;2022-07-22T08:02:12;18.20;99.90
38902;DHT22;24661;53.566;9.910;2022-07-22T08:04:38;18.20;99.90
38902;DHT22;24661;53.566;9.910;2022-07-22T08:07:05;18.10;99.90
38902;DHT22;24661;53.566;9.910;2022-07-22T08:09:32;18.10;99.90
38902;DHT22;24661;53.566;9.910;2022-07-22T08:11:57;18.20;99.90
38902;DHT22;24661;53.566;9.910;2022-07-22T08:14:23;18.20;99.90
38902;DHT22;24661;53.566;9.910;2022-07-22T08:16:49;18.40;99.90
38902;DHT22;24661;53.566;9.910;2022-07-22T08:19:15;18.40;99.90
38902;DHT22;24661;53.566;9.910;2022-07-22T08:21:40;18.40;99.90
38902;DHT22;24661;53.566;9.910;2022-07-22T08:24:08;18.40;99.90
38902;DHT22;24661;53.566;9.910;2022-07-22T08:26:34;18.40;99.90
38902;DHT22;24661;53.566;9.910;2022-07-22T08:29:00;18.50;99.90
38902;DHT22;24661;53.566;9.910;2022-07-22T08:31:27;18.30;99.90
38902;DHT22;24661;53.566;9.910;2022-07-22T08:33:53;18.20;99.90
38902;DHT22;24661;53.566;9.910;2022-07-22T08:36:19;18.20;99.90
38902;DHT22;24661;53.566;9.910;2022-07-22T08:38:45;18.20;99.90
38902;DHT22;24661;53.566;9.910;2022-07-22T08:41:11;18.40;99.90
38902;DHT22;24661;53.566;9.910;2022-07-22T08:43:38;18.40;99.90
38902;DHT22;24661;53.566;9.910;2022-07-22T08:46:09;18.40;99.90
38902;DHT22;24661;53.566;9.910;2022-07-22T08:48:37;18.70;99.90
38902;DHT22;24661;53.566;9.910;2022-07-22T08:51:03;18.80;99.90
38902;DHT22;24661;53.566;9.910;2022-07-22T08:53:28;18.80;99.90
38902;DHT22;24661;53.566;9.910;2022-07-22T08:55:54;18.90;99.90
38902;DHT22;24661;53.566;9.910;2022-07-22T08:58:19;18.80;99.90
38902;DHT22;24661;53.566;9.910;2022-07-22T09:00:45;18.80;99.90
38902;DHT22;24661;53.566;9.910;2022-07-22T09:03:24;18.90;99.90
38902;DHT22;24661;53.566;9.910;2022-07-22T09:05:53;18.90;99.90
38902;DHT22;24661;53.566;9.910;2022-07-22T09:08:20;19.00;99.90
38902;DHT22;24661;53.566;9.910;2022-07-22T09:10:46;19.10;99.90
38902;DHT22;24661;53.566;9.910;2022-07-22T09:13:14;19.30;99.90
38902;DHT22;24661;53.566;9.910;2022-07-22T09:15:52;19.40;99.90
38902;DHT22;24661;53.566;9.910;2022-07-22T09:18:19;19.40;99.90
38902;DHT22;24661;53.566;9.910;2022-07-22T09:20:44;19.30;99.90
38902;DHT22;24661;53.566;9.910;2022-07-22T09:23:15;19.20;99.90
38902;DHT22;24661;53.566;9.910;2022-07-22T09:25:44;19.20;99.90
38902;DHT22;24661;53.566;9.910;2022-07-22T09:30:39;19.00;99.90
38902;DHT22;24661;53.566;9.910;2022-07-22T09:33:06;19.00;99.90
38902;DHT22;24661;53.566;9.910;2022-07-22T09:35:32;18.80;99.90
38902;DHT22;24661;53.566;9.910;2022-07-22T09:37:59;18.70;99.90
38902;DHT22;24661;53.566;9.910;2022-07-22T09:40:27;19.10;99.90
38902;DHT22;24661;53.566;9.910;2022-07-22T09:42:57;18.70;99.90
38902;DHT22;24661;53.566;9.910;2022-07-22T09:45:28;18.70;99.90
38902;DHT22;24661;53.566;9.910;2022-07-22T09:47:56;18.90;99.90
38902;DHT22;24661;53.566;9.910;2022-07-22T09:50:28;19.00;99.90
38902;DHT22;24661;53.566;9.910;2022-07-22T09:52:55;19.20;99.90
38902;DHT22;24661;53.566;9.910;2022-07-22T09:55:22;19.40;99.90
38902;DHT22;24661;53.566;9.910;2022-07-22T09:57:49;19.60;99.90
38902;DHT22;24661;53.566;9.910;2022-07-22T10:00:17;19.70;99.90
38902;DHT22;24661;53.566;9.910;2022-07-22T10:02:51;19.80;99.90
38902;DHT22;24661;53.566;9.910;2022-07-22T10:05:20;19.90;99.90
38902;DHT22;24661;53.566;9.910;2022-07-22T10:07:46;19.80;99.90
38902;DHT22;24661;53.566;9.910;2022-07-22T10:10:14;19.70;99.90
38902;DHT22;24661;53.566;9.910;2022-07-22T10:12:41;19.70;99.90
38902;DHT22;24661;53.566;9.910;2022-07-22T10:15:08;19.60;99.90
38902;DHT22;24661;53.566;9.910;2022-07-22T10:17:47;19.40;99.90
38902;DHT22;24661;53.566;9.910;2022-07-22T10:20:21;18.40;99.90
38902;DHT22;24661;53.566;9.910;2022-07-22T10:23:04;19.20;99.90
38902;DHT22;24661;53.566;9.910;2022-07-22T10:25:32;19.10;99.90
38902;DHT22;24661;53.566;9.910;2022-07-22T10:28:21;19.00;99.90
38902;DHT22;24661;53.566;9.910;2022-07-22T10:30:46;19.00;99.90
38902;DHT22;24661;53.566;9.910;2022-07-22T10:33:17;19.00;99.90
38902;DHT22;24661;53.566;9.910;2022-07-22T10:36:02;18.90;99.90
38902;DHT22;24661;53.566;9.910;2022-07-22T10:38:30;18.90;99.90
38902;DHT22;24661;53.566;9.910;2022-07-22T10:41:01;18.90;99.90
38902;DHT22;24661;53.566;9.910;2022-07-22T10:43:50;19.10;99.90
38902;DHT22;24661;53.566;9.910;2022-07-22T10:46:15;19.00;99.90
38902;DHT22;24661;53.566;9.910;2022-07-22T10:51:20;19.20;99.90
38902;DHT22;24661;53.566;9.910;2022-07-22T10:53:53;19.30;99.90
38902;DHT22;24661;53.566;9.910;2022-07-22T10:59:12;19.10;99.90
38902;DHT22;24661;53.566;9.910;2022-07-22T11:01:49;19.20;99.90
38902;DHT22;24661;53.566;9.910;2022-07-22T11:04:16;19.40;99.90
38902;DHT22;24661;53.566;9.910;2022-07-22T11:06:43;19.40;99.90
38902;DHT22;24661;53.566;9.910;2022-07-22T11:09:15;19.60;99.90
38902;DHT22;24661;53.566;9.910;2022-07-22T11:16:37;19.60;99.90
38902;DHT22;24661;53.566;9.910;2022-07-22T11:19:03;19.60;99.90
38902;DHT22;24661;53.566;9.910;2022-07-22T11:21:30;19.80;99.90
38902;DHT22;24661;53.566;9.910;2022-07-22T11:24:01;19.80;99.90
38902;DHT22;24661;53.566;9.910;2022-07-22T11:26:40;19.70;99.90
38902;DHT22;24661;53.566;9.910;2022-07-22T11:29:07;19.50;99.90
38902;DHT22;24661;53.566;9.910;2022-07-22T11:31:33;19.40;99.90
38902;DHT22;24661;53.566;9.910;2022-07-22T11:34:10;19.20;99.90
38902;DHT22;24661;53.566;9.910;2022-07-22T11:36:38;19.30;99.90
38902;DHT22;24661;53.566;9.910;2022-07-22T11:39:04;19.20;99.90
38902;DHT22;24661;53.566;9.910;2022-07-22T11:41:30;19.10;99.90
38902;DHT22;24661;53.566;9.910;2022-07-22T11:43:57;19.20;99.90
38902;DHT22;24661;53.566;9.910;2022-07-22T11:46:23;19.30;99.90
38902;DHT22;24661;53.566;9.910;2022-07-22T11:48:54;19.50;99.90
38902;DHT22;24661;53.566;9.910;2022-07-22T11:51:28;19.60;99.90
38902;DHT22;24661;53.566;9.910;2022-07-22T11:53:54;19.60;99.90
38902;DHT22;24661;53.566;9.910;2022-07-22T11:56:20;19.60;99.90
38902;DHT22;24661;53.566;9.910;2022-07-22T11:58:47;19.60;99.90
38902;DHT22;24661;53.566;9.910;2022-07-22T12:01:17;19.50;99.90
38902;DHT22;24661;53.566;9.910;2022-07-22T12:03:50;19.20;99.90
38902;DHT22;24661;53.566;9.910;2022-07-22T12:06:18;18.90;99.90
38902;DHT22;24661;53.566;9.910;2022-07-22T12:09:32;18.80;99.90
38902;DHT22;24661;53.566;9.910;2022-07-22T12:11:31;18.80;99.90
38902;DHT22;24661;53.566;9.910;2022-07-22T12:14:06;18.90;99.90
38902;DHT22;24661;53.566;9.910;2022-07-22T12:16:33;18.90;99.90
38902;DHT22;24661;53.566;9.910;2022-07-22T12:19:07;19.10;99.90
38902;DHT22;24661;53.566;9.910;2022-07-22T12:21:36;19.30;99.90
38902;DHT22;24661;53.566;9.910;2022-07-22T12:24:04;19.40;99.90
38902;DHT22;24661;53.566;9.910;2022-07-22T12:26:48;19.50;99.90
38902;DHT22;24661;53.566;9.910;2022-07-22T12:31:58;19.50;99.90
38902;DHT22;24661;53.566;9.910;2022-07-22T12:34:37;19.60;99.90
38902;DHT22;24661;53.566;9.910;2022-07-22T12:37:17;19.70;99.90
38902;DHT22;24661;53.566;9.910;2022-07-22T12:40:20;19.80;99.90
38902;DHT22;24661;53.566;9.910;2022-07-22T12:45:30;20.10;99.90
38902;DHT22;24661;53.566;9.910;2022-07-22T12:50:43;20.50;99.90
38902;DHT22;24661;53.566;9.910;2022-07-22T12:53:14;20.70;99.90
38902;DHT22;24661;53.566;9.910;2022-07-22T12:58:10;20.40;99.90
38902;DHT22;24661;53.566;9.910;2022-07-22T13:00:39;20.40;99.90
38902;DHT22;24661;53.566;9.910;2022-07-22T13:03:05;20.30;99.90
38902;DHT22;24661;53.566;9.910;2022-07-22T13:05:31;20.30;99.90
38902;DHT22;24661;53.566;9.910;2022-07-22T13:07:57;20.30;99.90
38902;DHT22;24661;53.566;9.910;2022-07-22T13:10:24;20.20;99.90
38902;DHT22;24661;53.566;9.910;2022-07-22T13:12:51;20.30;99.90
38902;DHT22;24661;53.566;9.910;2022-07-22T13:15:17;20.50;99.90
38902;DHT22;24661;53.566;9.910;2022-07-22T13:17:43;20.50;99.90
38902;DHT22;24661;53.566;9.910;2022-07-22T13:20:10;20.60;99.90
38902;DHT22;24661;53.566;9.910;2022-07-22T13:22:36;20.50;99.90
38902;DHT22;24661;53.566;9.910;2022-07-22T13:25:02;20.50;99.90
38902;DHT22;24661;53.566;9.910;2022-07-22T13:27:28;20.40;99.90
38902;DHT22;24661;53.566;9.910;2022-07-22T13:29:54;20.30;99.90
38902;DHT22;24661;53.566;9.910;2022-07-22T13:32:19;20.40;99.90
38902;DHT22;24661;53.566;9.910;2022-07-22T13:34:45;20.40;99.90
38902;DHT22;24661;53.566;9.910;2022-07-22T13:37:11;20.30;99.90
38902;DHT22;24661;53.566;9.910;2022-07-22T13:39:37;20.20;99.90
38902;DHT22;24661;53.566;9.910;2022-07-22T13:42:03;20.10;99.90
38902;DHT22;24661;53.566;9.910;2022-07-22T13:44:29;20.20;99.90
38902;DHT22;24661;53.566;9.910;2022-07-22T13:46:56;20.20;99.90
38902;DHT22;24661;53.566;9.910;2022-07-22T13:49:23;20.30;99.90
38902;DHT22;24661;53.566;9.910;2022-07-22T13:51:48;20.40;99.90
38902;DHT22;24661;53.566;9.910;2022-07-22T13:54:14;20.40;99.90
38902;DHT22;24661;53.566;9.910;2022-07-22T13:56:39;20.40;99.90
38902;DHT22;24661;53.566;9.910;2022-07-22T13:59:05;20.50;99.90
38902;DHT22;24661;53.566;9.910;2022-07-22T14:01:31;20.60;99.90
38902;DHT22;24661;53.566;9.910;2022-07-22T14:03:57;20.60;99.90
38902;DHT22;24661;53.566;9.910;2022-07-22T14:06:22;20.60;99.90
38902;DHT22;24661;53.566;9.910;2022-07-22T14:08:48;20.50;99.90
38902;DHT22;24661;53.566;9.910;2022-07-22T14:11:14;20.30;99.90
38902;DHT22;24661;53.566;9.910;2022-07-22T14:13:39;20.20;99.90
38902;DHT22;24661;53.566;9.910;2022-07-22T14:16:05;20.10;99.90
38902;DHT22;24661;53.566;9.910;2022-07-22T14:19:09;20.10;99.90
38902;DHT22;24661;53.566;9.910;2022-07-22T14:21:36;20.00;99.90
38902;DHT22;24661;53.566;9.910;2022-07-22T14:24:04;19.90;99.90
38902;DHT22;24661;53.566;9.910;2022-07-22T14:26:30;20.00;99.90
38902;DHT22;24661;53.566;9.910;2022-07-22T14:28:56;20.00;99.90
38902;DHT22;24661;53.566;9.910;2022-07-22T14:31:22;20.10;99.90
38902;DHT22;24661;53.566;9.910;2022-07-22T14:33:48;20.00;99.90
38902;DHT22;24661;53.566;9.910;2022-07-22T14:36:14;19.90;99.90
38902;DHT22;24661;53.566;9.910;2022-07-22T14:38:39;20.10;99.90
38902;DHT22;24661;53.566;9.910;2022-07-22T14:41:05;20.20;99.90
38902;DHT22;24661;53.566;9.910;2022-07-22T14:43:33;20.20;99.90
38902;DHT22;24661;53.566;9.910;2022-07-22T14:45:58;20.00;99.90
38902;DHT22;24661;53.566;9.910;2022-07-22T14:48:24;20.00;99.90
38902;DHT22;24661;53.566;9.910;2022-07-22T14:50:49;20.20;99.90
38902;DHT22;24661;53.566;9.910;2022-07-22T14:53:15;20.10;99.90
38902;DHT22;24661;53.566;9.910;2022-07-22T14:55:42;20.10;99.90
38902;DHT22;24661;53.566;9.910;2022-07-22T14:58:08;20.10;99.90
38902;DHT22;24661;53.566;9.910;2022-07-22T15:00:34;20.30;99.90
38902;DHT22;24661;53.566;9.910;2022-07-22T15:02:59;20.40;99.90
38902;DHT22;24661;53.566;9.910;2022-07-22T15:05:25;20.40;99.90
38902;DHT22;24661;53.566;9.910;2022-07-22T15:07:51;20.50;99.90
38902;DHT22;24661;53.566;9.910;2022-07-22T15:10:16;20.40;99.90
38902;DHT22;24661;53.566;9.910;2022-07-22T15:12:42;20.50;99.90
38902;DHT22;24661;53.566;9.910;2022-07-22T15:15:08;20.50;99.90
38902;DHT22;24661;53.566;9.910;2022-07-22T15:17:36;20.70;99.90
38902;DHT22;24661;53.566;9.910;2022-07-22T15:20:03;20.60;99.90
38902;DHT22;24661;53.566;9.910;2022-07-22T15:22:30;20.50;99.90
38902;DHT22;24661;53.566;9.910;2022-07-22T15:24:55;20.40;99.90
38902;DHT22;24661;53.566;9.910;2022-07-22T15:27:21;20.30;99.90
38902;DHT22;24661;53.566;9.910;2022-07-22T15:29:47;20.30;99.90
38902;DHT22;24661;53.566;9.910;2022-07-22T15:32:14;20.30;99.90
38902;DHT22;24661;53.566;9.910;2022-07-22T15:34:41;20.20;99.90
38902;DHT22;24661;53.566;9.910;2022-07-22T15:37:07;20.10;99.90
38902;DHT22;24661;53.566;9.910;2022-07-22T15:39:33;20.20;99.90
38902;DHT22;24661;53.566;9.910;2022-07-22T15:41:59;20.00;99.90
38902;DHT22;24661;53.566;9.910;2022-07-22T15:44:25;20.10;99.90
38902;DHT22;24661;53.566;9.910;2022-07-22T15:46:50;19.90;99.90
38902;DHT22;24661;53.566;9.910;2022-07-22T15:49:16;19.90;99.90
38902;DHT22;24661;53.566;9.910;2022-07-22T15:51:42;19.90;99.90